createdAt,value
2019-05-10T00:00:50.105Z,10.02
2019-05-10T00:01:50.093Z,10.09
2019-05-10T00:02:50.066Z,10.09
2019-05-10T00:03:50.050Z,10.06
2019-05-10T00:04:50.043Z,10.07
2019-05-10T00:05:50.020Z,10.02
2019-05-10T00:06:50.009Z,10.06
2019-05-10T00:07:49.990Z,10.12
2019-05-10T00:08:49.972Z,10.02
2019-05-10T00:09:49.949Z,10.13
2019-05-10T00:10:49.992Z,10.07
2019-05-10T00:11:50.111Z,10.05
2019-05-10T00:12:49.899Z,10.06
2019-05-10T00:13:49.909Z,10.09
2019-05-10T00:14:49.866Z,10.06
2019-05-10T00:15:49.874Z,10.06
2019-05-10T00:16:49.842Z,10.02
2019-05-10T00:17:49.821Z,10.07
2019-05-10T00:18:49.821Z,10.07
2019-05-10T00:19:49.797Z,10.06
2019-05-10T00:20:49.761Z,10.12
2019-05-10T00:21:49.744Z,10.05
2019-05-10T00:22:49.727Z,10.05
2019-05-10T00:23:49.718Z,9.99
2019-05-10T00:25:03.176Z,10.07
2019-05-10T00:25:51.391Z,10.12
2019-05-10T00:26:49.666Z,10.07
2019-05-10T00:27:49.640Z,10.07
2019-05-10T00:28:49.628Z,10.09
2019-05-10T00:29:49.615Z,10.02
2019-05-10T00:30:49.596Z,10.02
2019-05-10T00:31:49.579Z,10.03
2019-05-10T00:32:49.563Z,9.97
2019-05-10T00:33:49.549Z,10.06
2019-05-10T00:34:49.525Z,10.00
2019-05-10T00:35:49.508Z,9.99
2019-05-10T00:36:49.494Z,10.06
2019-05-10T00:37:49.476Z,10.05
2019-05-10T00:38:49.458Z,10.00
2019-05-10T00:39:49.442Z,9.95
2019-05-10T00:40:49.434Z,9.97
2019-05-10T00:41:49.456Z,10.02
2019-05-10T00:42:49.392Z,9.92
2019-05-10T00:43:49.375Z,9.94
2019-05-10T00:44:49.352Z,9.87
2019-05-10T00:45:49.332Z,9.88
2019-05-10T00:46:49.318Z,9.92
2019-05-10T00:47:49.305Z,9.87
2019-05-10T00:48:49.284Z,9.90
2019-05-10T00:49:49.276Z,9.90
2019-05-10T00:50:49.249Z,9.90
2019-05-10T00:51:49.238Z,9.95
2019-05-10T00:52:49.217Z,9.90
2019-05-10T00:53:49.202Z,9.90
2019-05-10T00:54:49.190Z,9.90
2019-05-10T00:55:49.166Z,9.90
2019-05-10T00:56:49.150Z,9.97
2019-05-10T00:57:49.134Z,9.91
2019-05-10T00:58:49.123Z,9.85
2019-05-10T00:59:49.100Z,9.91
2019-05-10T01:00:49.083Z,9.90
2019-05-10T01:01:49.064Z,9.88
2019-05-10T01:02:49.049Z,9.91
2019-05-10T01:03:49.242Z,9.82
2019-05-10T01:04:49.013Z,9.82
2019-05-10T01:05:48.996Z,9.87
2019-05-10T01:06:48.981Z,9.90
2019-05-10T01:07:48.961Z,9.84
2019-05-10T01:08:48.946Z,9.84
2019-05-10T01:09:48.931Z,9.92
2019-05-10T01:10:48.910Z,9.84
2019-05-10T01:11:48.893Z,9.77
2019-05-10T01:12:48.885Z,9.84
2019-05-10T01:13:48.859Z,9.84
2019-05-10T01:14:48.865Z,9.87
2019-05-10T01:15:48.823Z,9.73
2019-05-10T01:16:48.806Z,9.73
2019-05-10T01:17:48.790Z,9.84
2019-05-10T01:18:48.773Z,9.82
2019-05-10T01:19:48.757Z,9.85
2019-05-10T01:20:48.738Z,9.76
2019-05-10T01:21:48.801Z,9.80
2019-05-10T01:22:48.702Z,9.72
2019-05-10T01:23:48.880Z,9.70
2019-05-10T01:24:48.671Z,9.72
2019-05-10T01:25:48.661Z,9.69
2019-05-10T01:26:49.373Z,9.72
2019-05-10T01:27:48.620Z,9.69
2019-05-10T01:28:48.602Z,9.67
2019-05-10T01:29:48.585Z,9.76
2019-05-10T01:30:48.568Z,9.73
2019-05-10T01:31:48.550Z,9.72
2019-05-10T01:32:48.686Z,9.76
2019-05-10T01:33:48.523Z,9.72
2019-05-10T01:34:48.499Z,9.72
2019-05-10T01:35:48.482Z,9.74
2019-05-10T01:36:48.462Z,9.72
2019-05-10T01:37:48.443Z,9.70
2019-05-10T01:38:48.432Z,9.70
2019-05-10T01:39:48.412Z,9.70
2019-05-10T01:40:48.399Z,9.66
2019-05-10T01:41:48.475Z,9.62
2019-05-10T01:42:48.374Z,9.62
2019-05-10T01:43:48.343Z,9.63
2019-05-10T01:44:48.327Z,9.67
2019-05-10T01:45:48.307Z,9.67
2019-05-10T01:46:48.615Z,9.72
2019-05-10T01:47:48.276Z,9.64
2019-05-10T01:48:48.259Z,9.59
2019-05-10T01:49:48.239Z,9.72
2019-05-10T01:50:48.225Z,9.67
2019-05-10T01:51:48.210Z,9.63
2019-05-10T01:52:48.181Z,9.67
2019-05-10T01:53:48.173Z,9.74
2019-05-10T01:54:48.158Z,9.64
2019-05-10T01:55:52.013Z,9.62
2019-05-10T01:56:48.120Z,9.64
2019-05-10T01:57:48.102Z,9.63
2019-05-10T01:58:48.086Z,9.62
2019-05-10T01:59:48.066Z,9.59
2019-05-10T02:00:48.052Z,9.59
2019-05-10T02:01:48.031Z,9.69
2019-05-10T02:02:48.014Z,9.58
2019-05-10T02:03:48.000Z,9.66
2019-05-10T02:04:47.983Z,9.63
2019-05-10T02:05:47.966Z,9.69
2019-05-10T02:06:47.948Z,9.63
2019-05-10T02:07:47.927Z,9.64
2019-05-10T02:08:47.921Z,9.58
2019-05-10T02:09:47.895Z,9.69
2019-05-10T02:10:47.877Z,9.63
2019-05-10T02:11:48.810Z,9.64
2019-05-10T02:12:47.843Z,9.67
2019-05-10T02:13:48.339Z,9.63
2019-05-10T02:14:47.812Z,9.67
2019-05-10T02:15:47.786Z,9.63
2019-05-10T02:16:47.771Z,9.67
2019-05-10T02:17:47.754Z,9.64
2019-05-10T02:18:47.739Z,9.69
2019-05-10T02:19:47.719Z,9.74
2019-05-10T02:20:47.705Z,9.66
2019-05-10T02:21:47.686Z,9.70
2019-05-10T02:22:47.691Z,9.72
2019-05-10T02:23:47.653Z,9.62
2019-05-10T02:24:47.905Z,9.58
2019-05-10T02:25:47.619Z,9.69
2019-05-10T02:26:47.600Z,9.67
2019-05-10T02:27:47.582Z,9.70
2019-05-10T02:28:47.562Z,9.62
2019-05-10T02:29:47.549Z,9.62
2019-05-10T02:30:47.532Z,9.63
2019-05-10T02:31:47.515Z,9.62
2019-05-10T02:32:47.513Z,9.64
2019-05-10T02:33:47.483Z,9.66
2019-05-10T02:34:47.463Z,9.64
2019-05-10T02:35:47.449Z,9.58
2019-05-10T02:36:47.438Z,9.62
2019-05-10T02:37:47.410Z,9.66
2019-05-10T02:38:47.396Z,9.58
2019-05-10T02:39:47.374Z,9.58
2019-05-10T02:40:47.364Z,9.51
2019-05-10T02:41:47.342Z,9.56
2019-05-10T02:42:47.323Z,9.49
2019-05-10T02:43:48.266Z,9.51
2019-05-10T02:44:47.291Z,9.47
2019-05-10T02:45:47.272Z,9.40
2019-05-10T02:46:47.254Z,9.34
2019-05-10T02:47:47.242Z,9.34
2019-05-10T02:48:48.131Z,9.27
2019-05-10T02:49:47.816Z,9.30
2019-05-10T02:50:47.189Z,9.22
2019-05-10T02:51:47.170Z,9.22
2019-05-10T02:52:47.150Z,9.11
2019-05-10T02:53:47.136Z,9.13
2019-05-10T02:54:47.126Z,9.05
2019-05-10T02:55:47.097Z,9.09
2019-05-10T02:56:47.080Z,9.05
2019-05-10T02:57:47.066Z,9.11
2019-05-10T02:58:47.064Z,9.08
2019-05-10T02:59:47.026Z,9.02
2019-05-10T03:00:47.007Z,8.99
2019-05-10T03:01:46.996Z,8.99
2019-05-10T03:02:46.986Z,9.02
2019-05-10T03:03:46.956Z,8.92
2019-05-10T03:04:46.941Z,8.97
2019-05-10T03:05:48.549Z,9.05
2019-05-10T03:06:46.908Z,9.03
2019-05-10T03:07:46.885Z,9.03
2019-05-10T03:08:46.873Z,9.05
2019-05-10T03:09:46.850Z,9.05
2019-05-10T03:10:46.854Z,9.08
2019-05-10T03:11:46.841Z,9.05
2019-05-10T03:12:46.803Z,9.00
2019-05-10T03:13:46.785Z,9.13
2019-05-10T03:14:46.766Z,9.11
2019-05-10T03:15:46.748Z,9.05
2019-05-10T03:16:46.746Z,8.96
2019-05-10T03:17:46.739Z,8.99
2019-05-10T03:18:46.702Z,9.00
2019-05-10T03:19:46.678Z,8.99
2019-05-10T03:20:46.666Z,8.99
2019-05-10T03:21:46.640Z,8.86
2019-05-10T03:22:47.414Z,8.87
2019-05-10T03:23:46.607Z,8.87
2019-05-10T03:24:46.611Z,8.93
2019-05-10T03:25:46.616Z,8.79
2019-05-10T03:26:50.634Z,8.79
2019-05-10T03:27:46.537Z,8.86
2019-05-10T03:28:46.558Z,8.90
2019-05-10T03:29:46.502Z,8.87
2019-05-10T03:30:46.670Z,8.77
2019-05-10T03:31:46.476Z,8.86
2019-05-10T03:32:46.480Z,8.86
2019-05-10T03:33:54.993Z,8.74
2019-05-10T03:34:46.417Z,8.82
2019-05-10T03:35:46.401Z,8.74
2019-05-10T03:36:46.425Z,8.78
2019-05-10T03:37:47.043Z,8.77
2019-05-10T03:38:46.351Z,8.82
2019-05-10T03:39:46.418Z,8.79
2019-05-10T03:40:46.311Z,8.77
2019-05-10T03:41:46.299Z,8.74
2019-05-10T03:42:46.273Z,8.78
2019-05-10T03:43:46.255Z,8.75
2019-05-10T03:44:46.249Z,8.75
2019-05-10T03:45:46.238Z,8.82
2019-05-10T03:46:46.215Z,8.86
2019-05-10T03:47:46.196Z,8.89
2019-05-10T03:48:46.163Z,8.78
2019-05-10T03:49:46.169Z,8.87
2019-05-10T03:50:46.148Z,8.84
2019-05-10T03:51:46.117Z,8.82
2019-05-10T03:52:46.099Z,8.75
2019-05-10T03:53:46.080Z,8.82
2019-05-10T03:54:46.099Z,8.86
2019-05-10T03:55:46.043Z,8.84
2019-05-10T03:56:46.034Z,8.89
2019-05-10T03:57:46.011Z,8.87
2019-05-10T03:58:45.995Z,8.71
2019-05-10T03:59:45.983Z,8.77
2019-05-10T04:00:45.995Z,8.75
2019-05-10T04:01:45.941Z,8.75
2019-05-10T04:02:45.922Z,8.77
2019-05-10T04:03:45.908Z,8.79
2019-05-10T04:04:45.894Z,8.71
2019-05-10T04:05:45.866Z,8.79
2019-05-10T04:06:45.855Z,8.78
2019-05-10T04:07:45.835Z,8.71
2019-05-10T04:08:45.817Z,8.69
2019-05-10T04:09:45.803Z,8.69
2019-05-10T04:10:45.780Z,8.79
2019-05-10T04:11:45.766Z,8.74
2019-05-10T04:12:45.746Z,8.79
2019-05-10T04:13:45.731Z,8.78
2019-05-10T04:14:45.711Z,8.75
2019-05-10T04:15:45.692Z,8.72
2019-05-10T04:16:45.681Z,8.75
2019-05-10T04:17:49.911Z,8.79
2019-05-10T04:18:45.641Z,8.75
2019-05-10T04:19:45.623Z,8.82
2019-05-10T04:20:45.602Z,8.78
2019-05-10T04:21:45.587Z,8.77
2019-05-10T04:22:45.573Z,8.74
2019-05-10T04:23:45.555Z,8.61
2019-05-10T04:24:45.534Z,8.68
2019-05-10T04:25:45.516Z,8.71
2019-05-10T04:26:45.499Z,8.66
2019-05-10T04:27:45.483Z,8.64
2019-05-10T04:28:45.467Z,8.61
2019-05-10T04:29:45.451Z,8.56
2019-05-10T04:30:45.432Z,8.68
2019-05-10T04:31:45.415Z,8.69
2019-05-10T04:32:45.388Z,8.61
2019-05-10T04:33:45.377Z,8.68
2019-05-10T04:34:45.363Z,8.53
2019-05-10T04:35:45.340Z,8.54
2019-05-10T04:36:45.325Z,8.56
2019-05-10T04:37:45.305Z,8.59
2019-05-10T04:38:45.292Z,8.56
2019-05-10T04:39:45.269Z,8.54
2019-05-10T04:40:45.254Z,8.56
2019-05-10T04:41:45.234Z,8.56
2019-05-10T04:42:45.236Z,8.56
2019-05-10T04:43:45.198Z,8.49
2019-05-10T04:44:45.179Z,8.56
2019-05-10T04:45:45.176Z,8.52
2019-05-10T04:46:45.149Z,8.53
2019-05-10T04:47:45.139Z,8.52
2019-05-10T04:48:45.111Z,8.59
2019-05-10T04:49:45.101Z,8.57
2019-05-10T04:50:48.843Z,8.59
2019-05-10T04:51:45.057Z,8.54
2019-05-10T04:52:45.041Z,8.54
2019-05-10T04:53:45.021Z,8.53
2019-05-10T04:54:45.006Z,8.56
2019-05-10T04:55:44.986Z,8.64
2019-05-10T04:56:44.976Z,8.54
2019-05-10T04:57:50.649Z,8.63
2019-05-10T04:58:44.972Z,8.71
2019-05-10T04:59:44.934Z,8.69
2019-05-10T05:00:44.899Z,8.74
2019-05-10T05:01:44.883Z,8.71
2019-05-10T05:02:44.865Z,8.74
2019-05-10T05:03:44.839Z,8.75
2019-05-10T05:04:44.830Z,8.79
2019-05-10T05:05:44.825Z,8.77
2019-05-10T05:06:44.794Z,8.74
2019-05-10T05:07:44.770Z,8.82
2019-05-10T05:08:44.776Z,8.84
2019-05-10T05:09:44.742Z,8.86
2019-05-10T05:10:44.725Z,8.86
2019-05-10T05:11:44.726Z,8.90
2019-05-10T05:12:44.690Z,8.92
2019-05-10T05:13:44.665Z,8.95
2019-05-10T05:14:44.652Z,8.97
2019-05-10T05:15:44.657Z,9.03
2019-05-10T05:16:44.619Z,9.09
2019-05-10T05:17:44.613Z,9.05
2019-05-10T05:18:44.590Z,9.12
2019-05-10T05:19:44.567Z,9.12
2019-05-10T05:20:44.548Z,9.24
2019-05-10T05:21:44.531Z,9.24
2019-05-10T05:22:44.513Z,9.33
2019-05-10T05:23:44.505Z,9.36
2019-05-10T05:24:44.478Z,9.34
2019-05-10T05:25:44.461Z,9.47
2019-05-10T05:26:44.444Z,9.58
2019-05-10T05:27:44.421Z,9.54
2019-05-10T05:28:44.402Z,9.67
2019-05-10T05:29:44.394Z,9.72
2019-05-10T05:30:44.378Z,9.73
2019-05-10T05:31:44.355Z,9.76
2019-05-10T05:32:45.798Z,9.80
2019-05-10T05:33:44.324Z,9.81
2019-05-10T05:34:44.308Z,9.88
2019-05-10T05:35:44.291Z,9.92
2019-05-10T05:36:44.281Z,9.99
2019-05-10T05:37:44.253Z,9.99
2019-05-10T05:38:47.301Z,10.03
2019-05-10T05:39:44.222Z,10.07
2019-05-10T05:40:44.209Z,10.05
2019-05-10T05:41:48.930Z,10.15
2019-05-10T05:42:44.177Z,10.13
2019-05-10T05:43:46.181Z,10.25
2019-05-10T05:44:44.178Z,10.21
2019-05-10T05:45:44.116Z,10.25
2019-05-10T05:46:44.104Z,10.30
2019-05-10T05:47:44.794Z,10.24
2019-05-10T05:48:44.069Z,10.41
2019-05-10T05:49:44.072Z,10.31
2019-05-10T05:50:44.041Z,10.42
2019-05-10T05:51:44.023Z,10.42
2019-05-10T05:52:44.003Z,10.39
2019-05-10T05:53:44.823Z,10.48
2019-05-10T05:54:43.969Z,10.45
2019-05-10T05:55:43.959Z,10.42
2019-05-10T05:56:44.463Z,10.46
2019-05-10T05:57:43.923Z,10.46
2019-05-10T05:58:45.175Z,10.43
2019-05-10T05:59:43.887Z,10.42
2019-05-10T06:00:44.977Z,10.49
2019-05-10T06:01:43.853Z,10.58
2019-05-10T06:02:45.035Z,10.58
2019-05-10T06:03:43.823Z,10.49
2019-05-10T06:04:46.161Z,10.55
2019-05-10T06:05:43.784Z,10.59
2019-05-10T06:06:43.773Z,10.67
2019-05-10T06:07:43.752Z,10.67
2019-05-10T06:08:43.737Z,10.69
2019-05-10T06:09:43.716Z,10.75
2019-05-10T06:10:44.164Z,10.76
2019-05-10T06:11:43.688Z,10.84
2019-05-10T06:12:44.435Z,10.92
2019-05-10T06:13:43.672Z,10.87
2019-05-10T06:14:49.926Z,10.86
2019-05-10T06:15:43.620Z,10.92
2019-05-10T06:16:44.920Z,11.01
2019-05-10T06:17:43.593Z,11.02
2019-05-10T06:18:47.208Z,11.15
2019-05-10T06:19:43.559Z,11.10
2019-05-10T06:20:44.562Z,11.18
2019-05-10T06:21:43.522Z,11.10
2019-05-10T06:22:56.160Z,11.18
2019-05-10T06:23:43.490Z,11.18
2019-05-10T06:24:46.747Z,11.22
2019-05-10T06:25:43.462Z,11.33
2019-05-10T06:26:43.440Z,11.33
2019-05-10T06:27:43.425Z,11.33
2019-05-10T06:28:58.543Z,11.43
2019-05-10T06:29:43.396Z,11.38
2019-05-10T06:30:43.395Z,11.48
2019-05-10T06:31:43.359Z,11.51
2019-05-10T06:32:43.369Z,11.51
2019-05-10T06:33:44.996Z,11.55
2019-05-10T06:34:43.315Z,11.52
2019-05-10T06:35:43.301Z,11.55
2019-05-10T06:36:43.283Z,11.68
2019-05-10T06:37:43.269Z,11.67
2019-05-10T06:38:43.245Z,11.60
2019-05-10T06:39:43.236Z,11.73
2019-05-10T06:40:47.344Z,11.70
2019-05-10T06:41:43.205Z,11.71
2019-05-10T06:42:43.193Z,11.81
2019-05-10T06:43:45.640Z,11.77
2019-05-10T06:44:43.158Z,11.73
2019-05-10T06:45:46.698Z,11.86
2019-05-10T06:46:43.132Z,11.86
2019-05-10T06:47:47.660Z,11.88
2019-05-10T06:48:43.094Z,12.00
2019-05-10T06:49:50.715Z,11.97
2019-05-10T06:50:43.065Z,11.95
2019-05-10T06:51:48.904Z,12.00
2019-05-10T06:52:43.036Z,12.03
2019-05-10T06:53:52.081Z,12.02
2019-05-10T06:54:43.005Z,11.96
2019-05-10T06:55:42.989Z,12.10
2019-05-10T06:56:42.973Z,12.12
2019-05-10T06:57:42.959Z,12.08
2019-05-10T06:58:42.942Z,12.18
2019-05-10T06:59:42.924Z,12.20
2019-05-10T07:00:45.068Z,12.29
2019-05-10T07:01:45.842Z,12.36
2019-05-10T07:02:42.882Z,12.28
2019-05-10T07:03:42.867Z,12.40
2019-05-10T07:04:42.853Z,12.33
2019-05-10T07:05:42.837Z,12.40
2019-05-10T07:06:42.824Z,12.43
2019-05-10T07:07:44.778Z,12.40
2019-05-10T07:08:45.597Z,12.47
2019-05-10T07:10:03.826Z,12.43
2019-05-10T07:10:42.757Z,12.48
2019-05-10T07:11:43.807Z,12.43
2019-05-10T07:12:42.857Z,12.63
2019-05-10T07:13:47.067Z,12.65
2019-05-10T07:14:45.935Z,12.63
2019-05-10T07:15:45.746Z,12.58
2019-05-10T07:16:42.671Z,12.70
2019-05-10T07:17:47.005Z,12.70
2019-05-10T07:18:42.644Z,12.75
2019-05-10T07:19:53.263Z,12.83
2019-05-10T07:20:43.386Z,12.90
2019-05-10T07:21:44.742Z,12.93
2019-05-10T07:22:42.583Z,13.02
2019-05-10T07:23:44.699Z,13.01
2019-05-10T07:24:42.553Z,13.06
2019-05-10T07:25:43.859Z,12.91
2019-05-10T07:26:42.525Z,13.03
2019-05-10T07:27:42.515Z,13.02
2019-05-10T07:28:42.491Z,13.03
2019-05-10T07:29:45.986Z,13.01
2019-05-10T07:30:42.466Z,13.03
2019-05-10T07:31:42.453Z,12.99
2019-05-10T07:32:42.435Z,13.17
2019-05-10T07:33:42.425Z,13.23
2019-05-10T07:34:42.430Z,13.33
2019-05-10T07:35:42.392Z,13.36
2019-05-10T07:36:42.381Z,13.47
2019-05-10T07:37:47.531Z,13.49
2019-05-10T07:38:42.349Z,13.64
2019-05-10T07:39:42.340Z,13.75
2019-05-10T07:40:42.321Z,13.85
2019-05-10T07:41:42.329Z,13.89
2019-05-10T07:42:45.482Z,13.95
2019-05-10T07:43:42.294Z,14.04
2019-05-10T07:44:46.743Z,14.05
2019-05-10T07:45:42.257Z,14.22
2019-05-10T07:46:46.585Z,14.25
2019-05-10T07:47:42.226Z,14.22
2019-05-10T07:48:47.341Z,14.25
2019-05-10T07:49:42.206Z,14.26
2019-05-10T07:50:48.969Z,14.38
2019-05-10T07:51:42.179Z,14.40
2019-05-10T07:52:45.509Z,14.52
2019-05-10T07:53:42.153Z,14.45
2019-05-10T07:54:45.276Z,14.51
2019-05-10T07:55:42.130Z,14.51
2019-05-10T07:56:45.567Z,14.49
2019-05-10T07:57:42.103Z,14.56
2019-05-10T07:58:43.157Z,14.62
2019-05-10T07:59:50.656Z,14.68
2019-05-10T08:00:44.479Z,14.81
2019-05-10T08:01:42.058Z,14.85
2019-05-10T08:02:44.420Z,14.93
2019-05-10T08:03:48.124Z,15.05
2019-05-10T08:04:42.015Z,14.94
2019-05-10T08:05:46.238Z,15.10
2019-05-10T08:06:47.457Z,15.18
2019-05-10T08:07:41.979Z,15.18
2019-05-10T08:08:41.965Z,15.27
2019-05-10T08:09:45.002Z,15.26
2019-05-10T08:10:41.940Z,15.19
2019-05-10T08:11:41.931Z,15.22
2019-05-10T08:12:45.596Z,15.15
2019-05-10T08:13:41.977Z,15.33
2019-05-10T08:14:44.602Z,15.37
2019-05-10T08:15:41.879Z,15.57
2019-05-10T08:16:41.866Z,15.55
2019-05-10T08:17:45.597Z,15.80
2019-05-10T08:18:42.473Z,15.85
2019-05-10T08:19:41.834Z,15.78
2019-05-10T08:20:50.435Z,15.81
2019-05-10T08:21:42.014Z,15.78
2019-05-10T08:22:45.944Z,15.73
2019-05-10T08:23:43.877Z,15.72
2019-05-10T08:24:46.525Z,15.73
2019-05-10T08:25:46.871Z,15.76
2019-05-10T08:26:42.567Z,15.78
2019-05-10T08:27:50.244Z,15.90
2019-05-10T08:28:44.685Z,15.91
2019-05-10T08:29:42.925Z,16.03
2019-05-10T08:30:51.170Z,16.13
2019-05-10T08:31:49.053Z,16.22
2019-05-10T08:32:42.473Z,16.37
2019-05-10T08:33:44.305Z,16.43
2019-05-10T08:34:51.851Z,16.41
2019-05-10T08:35:45.928Z,16.49
2019-05-10T08:36:45.848Z,16.58
2019-05-10T08:37:43.361Z,16.50
2019-05-10T08:38:46.144Z,16.55
2019-05-10T08:39:49.087Z,16.59
2019-05-10T08:40:42.761Z,16.46
2019-05-10T08:41:42.890Z,16.51
2019-05-10T08:42:48.127Z,16.65
2019-05-10T08:43:43.086Z,16.69
2019-05-10T08:44:42.708Z,16.83
2019-05-10T08:45:45.133Z,16.92
2019-05-10T08:46:44.295Z,17.05
2019-05-10T08:47:42.710Z,17.01
2019-05-10T08:48:46.715Z,16.99
2019-05-10T08:49:55.130Z,17.01
2019-05-10T08:50:53.314Z,17.02
2019-05-10T08:51:47.728Z,17.10
2019-05-10T08:52:42.362Z,17.22
2019-05-10T08:53:42.252Z,17.41
2019-05-10T08:54:42.319Z,17.69
2019-05-10T08:55:43.257Z,17.87
2019-05-10T08:56:44.035Z,18.11
2019-05-10T08:57:44.279Z,18.30
2019-05-10T08:58:42.199Z,18.31
2019-05-10T08:59:42.668Z,18.33
2019-05-10T09:00:54.366Z,18.36
2019-05-10T09:01:46.985Z,18.37
2019-05-10T09:02:42.752Z,18.36
2019-05-10T09:03:42.029Z,18.33
2019-05-10T09:04:45.875Z,18.18
2019-05-10T09:05:43.294Z,18.06
2019-05-10T09:06:42.034Z,18.09
2019-05-10T09:07:44.994Z,18.15
2019-05-10T09:08:43.171Z,18.11
2019-05-10T09:09:49.449Z,18.16
2019-05-10T09:10:42.167Z,18.28
2019-05-10T09:11:44.023Z,18.43
2019-05-10T09:12:50.593Z,18.61
2019-05-10T09:13:45.726Z,18.67
2019-05-10T09:14:42.595Z,18.73
2019-05-10T09:15:51.322Z,18.96
2019-05-10T09:16:45.665Z,18.98
2019-05-10T09:17:42.834Z,19.19
2019-05-10T09:18:46.212Z,19.34
2019-05-10T09:19:44.142Z,19.52
2019-05-10T09:20:42.175Z,19.67
2019-05-10T09:21:49.280Z,19.82
2019-05-10T09:22:42.445Z,20.00
2019-05-10T09:23:42.659Z,19.97
2019-05-10T09:24:48.581Z,19.90
2019-05-10T09:25:42.659Z,19.89
2019-05-10T09:26:41.828Z,19.79
2019-05-10T09:27:43.214Z,19.64
2019-05-10T09:28:42.137Z,19.70
2019-05-10T09:29:42.985Z,19.82
2019-05-10T09:30:55.757Z,19.82
2019-05-10T09:31:45.880Z,19.71
2019-05-10T09:32:43.180Z,19.55
2019-05-10T09:33:49.309Z,19.45
2019-05-10T09:34:42.667Z,19.22
2019-05-10T09:35:47.066Z,19.15
2019-05-10T09:36:44.791Z,19.15
2019-05-10T09:37:42.102Z,19.04
2019-05-10T09:38:43.308Z,19.29
2019-05-10T09:39:42.386Z,19.30
2019-05-10T09:40:50.519Z,19.20
2019-05-10T09:41:42.118Z,19.34
2019-05-10T09:42:43.629Z,19.09
2019-05-10T09:43:48.396Z,18.86
2019-05-10T09:44:40.967Z,18.73
2019-05-10T09:45:42.374Z,18.70
2019-05-10T09:46:42.206Z,18.60
2019-05-10T09:47:43.491Z,18.61
2019-05-10T09:48:44.702Z,18.58
2019-05-10T09:49:46.873Z,18.67
2019-05-10T09:50:46.542Z,18.64
2019-05-10T09:51:42.279Z,18.68
2019-05-10T09:52:40.891Z,18.88
2019-05-10T09:53:40.883Z,19.04
2019-05-10T09:54:40.872Z,19.20
2019-05-10T09:55:45.571Z,19.48
2019-05-10T09:56:44.366Z,19.49
2019-05-10T09:57:40.842Z,19.57
2019-05-10T09:58:40.831Z,19.52
2019-05-10T09:59:40.822Z,19.57
2019-05-10T10:00:40.816Z,19.53
2019-05-10T10:01:40.802Z,19.53
2019-05-10T10:02:40.985Z,19.52
2019-05-10T10:03:43.572Z,19.49
2019-05-10T10:04:40.781Z,19.55
2019-05-10T10:05:40.849Z,19.49
2019-05-10T10:06:41.944Z,19.45
2019-05-10T10:07:40.748Z,19.55
2019-05-10T10:08:43.533Z,19.47
2019-05-10T10:09:44.656Z,19.48
2019-05-10T10:10:40.719Z,19.57
2019-05-10T10:11:40.710Z,19.64
2019-05-10T10:12:40.710Z,19.82
2019-05-10T10:13:43.781Z,20.07
2019-05-10T10:14:43.315Z,20.29
2019-05-10T10:15:40.672Z,20.64
2019-05-10T10:16:40.664Z,20.82
2019-05-10T10:17:42.517Z,21.10
2019-05-10T10:18:40.647Z,21.08
2019-05-10T10:19:40.884Z,21.10
2019-05-10T10:20:43.718Z,21.03
2019-05-10T10:21:40.622Z,20.88
2019-05-10T10:22:43.370Z,20.67
2019-05-10T10:23:40.609Z,20.58
2019-05-10T10:24:41.208Z,20.60
2019-05-10T10:25:42.194Z,20.66
2019-05-10T10:26:40.600Z,20.71
2019-05-10T10:27:40.572Z,20.70
2019-05-10T10:28:41.111Z,20.88
2019-05-10T10:29:40.557Z,20.89
2019-05-10T10:30:40.549Z,20.98
2019-05-10T10:31:51.079Z,21.05
2019-05-10T10:32:40.532Z,21.14
2019-05-10T10:33:42.924Z,21.19
2019-05-10T10:34:43.029Z,21.26
2019-05-10T10:35:40.509Z,21.37
2019-05-10T10:36:43.956Z,21.54
2019-05-10T10:37:40.498Z,21.56
2019-05-10T10:38:45.295Z,21.56
2019-05-10T10:39:40.482Z,21.63
2019-05-10T10:40:44.753Z,21.74
2019-05-10T10:41:40.466Z,21.83
2019-05-10T10:42:40.457Z,21.65
2019-05-10T10:43:40.448Z,21.60
2019-05-10T10:44:40.442Z,21.59
2019-05-10T10:45:40.552Z,21.75
2019-05-10T10:46:40.429Z,21.75
2019-05-10T10:47:40.414Z,21.65
2019-05-10T10:48:43.618Z,21.60
2019-05-10T10:49:40.408Z,21.37
2019-05-10T10:50:44.152Z,21.35
2019-05-10T10:51:40.394Z,21.40
2019-05-10T10:52:40.383Z,21.56
2019-05-10T10:53:40.380Z,21.50
2019-05-10T10:54:40.378Z,21.66
2019-05-10T10:55:40.514Z,21.70
2019-05-10T10:56:40.355Z,21.63
2019-05-10T10:57:40.346Z,21.60
2019-05-10T10:58:40.534Z,21.38
2019-05-10T10:59:40.337Z,21.19
2019-05-10T11:00:40.325Z,21.00
2019-05-10T11:01:50.069Z,20.80
2019-05-10T11:02:41.665Z,20.70
2019-05-10T11:03:40.326Z,20.46
2019-05-10T11:04:46.386Z,20.29
2019-05-10T11:05:40.311Z,20.26
2019-05-10T11:06:40.278Z,20.08
2019-05-10T11:07:44.380Z,20.00
2019-05-10T11:08:41.275Z,19.82
2019-05-10T11:09:40.951Z,19.87
2019-05-10T11:10:40.473Z,20.04
2019-05-10T11:11:44.426Z,20.21
2019-05-10T11:12:41.275Z,20.50
2019-05-10T11:13:44.921Z,20.63
2019-05-10T11:14:45.171Z,20.88
2019-05-10T11:15:41.964Z,21.17
2019-05-10T11:16:41.277Z,21.43
2019-05-10T11:17:40.895Z,21.48
2019-05-10T11:18:41.874Z,21.81
2019-05-10T11:19:41.707Z,21.92
2019-05-10T11:20:42.053Z,22.04
2019-05-10T11:21:41.547Z,22.33
2019-05-10T11:22:41.999Z,22.49
2019-05-10T11:23:42.028Z,22.61
2019-05-10T11:24:40.137Z,22.74
2019-05-10T11:25:42.777Z,22.81
2019-05-10T11:26:40.697Z,22.91
2019-05-10T11:27:41.603Z,22.91
2019-05-10T11:28:44.023Z,22.92
2019-05-10T11:29:41.828Z,22.99
2019-05-10T11:30:40.101Z,23.11
2019-05-10T11:31:41.375Z,23.17
2019-05-10T11:32:41.862Z,23.44
2019-05-10T11:33:41.481Z,23.55
2019-05-10T11:34:40.083Z,23.69
2019-05-10T11:35:41.699Z,23.81
2019-05-10T11:36:40.389Z,23.84
2019-05-10T11:37:42.093Z,24.06
2019-05-10T11:38:41.996Z,24.25
2019-05-10T11:39:45.489Z,24.43
2019-05-10T11:40:41.895Z,24.46
2019-05-10T11:41:40.046Z,24.62
2019-05-10T11:42:45.985Z,24.79
2019-05-10T11:43:41.907Z,24.82
2019-05-10T11:44:41.412Z,24.84
2019-05-10T11:45:43.675Z,24.79
2019-05-10T11:46:41.632Z,24.78
2019-05-10T11:47:40.927Z,24.63
2019-05-10T11:48:42.198Z,24.44
2019-05-10T11:49:40.630Z,24.40
2019-05-10T11:50:41.056Z,24.24
2019-05-10T11:51:41.363Z,24.31
2019-05-10T11:52:40.720Z,24.31
2019-05-10T11:53:41.490Z,24.43
2019-05-10T11:54:41.654Z,24.47
2019-05-10T11:55:42.884Z,24.43
2019-05-10T11:56:41.029Z,24.41
2019-05-10T11:59:03.773Z,24.18
2019-05-10T11:59:41.573Z,24.18
2019-05-10T12:00:41.318Z,24.09
2019-05-10T12:01:41.851Z,24.09
2019-05-10T12:03:00.906Z,24.01
2019-05-10T12:03:42.433Z,24.03
2019-05-10T12:04:43.238Z,23.95
2019-05-10T12:05:42.452Z,23.95
2019-05-10T12:06:46.602Z,23.79
2019-05-10T12:07:44.970Z,23.69
2019-05-10T12:08:41.759Z,23.70
2019-05-10T12:09:42.458Z,23.70
2019-05-10T12:10:42.959Z,23.79
2019-05-10T12:11:51.243Z,23.89
2019-05-10T12:12:54.635Z,24.03
2019-05-10T12:13:39.971Z,24.13
2019-05-10T12:14:46.182Z,24.18
2019-05-10T12:15:42.852Z,24.29
2019-05-10T12:16:41.967Z,24.14
2019-05-10T12:17:46.265Z,24.16
2019-05-10T12:18:46.560Z,24.01
2019-05-10T12:19:47.771Z,24.03
2019-05-10T12:20:54.326Z,24.21
2019-05-10T12:21:39.956Z,24.37
2019-05-10T12:22:46.379Z,24.82
2019-05-10T12:23:47.318Z,25.03
2019-05-10T12:24:57.333Z,25.40
2019-05-10T12:25:53.120Z,25.71
2019-05-10T12:25:59.518Z,24.37
2019-05-10T12:27:45.262Z,26.06
2019-05-10T12:28:40.783Z,26.30
2019-05-10T12:29:39.948Z,26.29
2019-05-10T12:30:40.929Z,26.23
2019-05-10T12:31:41.466Z,26.16
2019-05-10T12:32:55.151Z,26.08
2019-05-10T12:33:42.990Z,26.07
2019-05-10T12:34:41.025Z,26.04
2019-05-10T12:35:46.572Z,25.98
2019-05-10T12:36:41.358Z,26.03
2019-05-10T12:37:46.518Z,25.73
2019-05-10T12:38:39.939Z,25.49
2019-05-10T12:39:39.935Z,25.09
2019-05-10T12:40:41.753Z,24.93
2019-05-10T12:41:45.096Z,24.61
2019-05-10T12:42:41.722Z,24.34
2019-05-10T12:43:40.909Z,24.26
2019-05-10T12:44:43.893Z,24.40
2019-05-10T12:45:41.851Z,24.69
2019-05-10T12:46:42.254Z,25.01
2019-05-10T12:47:41.409Z,25.26
2019-05-10T12:48:39.916Z,25.55
2019-05-10T12:49:40.945Z,25.86
2019-05-10T12:50:43.690Z,26.03
2019-05-10T12:51:40.893Z,26.36
2019-05-10T12:52:42.986Z,26.34
2019-05-10T12:53:44.422Z,26.15
2019-05-10T12:54:41.463Z,25.99
2019-05-10T12:55:39.917Z,25.77
2019-05-10T12:56:43.893Z,25.59
2019-05-10T12:57:43.229Z,25.25
2019-05-10T12:58:39.916Z,25.00
2019-05-10T12:59:39.908Z,24.94
2019-05-10T13:00:39.913Z,24.78
2019-05-10T13:01:39.914Z,24.68
2019-05-10T13:02:44.709Z,24.65
2019-05-10T13:03:39.901Z,24.43